Greenford, Ohio
Current Conditions -  °F | °C
As of 12:51 PM on Thursday 18 Dec 2014 (Local Time) from KYNG Reporting Station
Light Snow Light Snow  
Wind Chill: 20°   Ceiling: 1100
Heat Index: 29°   Visibility: 7mi
Dew Point: 24°   Wind: 9mph
Humidity: 82%   Direction: 250°WSW
Pressure: 30.14"   Gusts: NA
Location:  40.94°N, 80.79°W
Report Text: KYNG 181751Z 25008KT 7SM -SN BKN011 OVC015 M02/M04 A3014 RMK AO2 SLP220 P0000 60001 T10171044 11017 21022 58008
Loading
Personal Weather Stations






























Interactive Weather Map New forecast layout! Learn more

10-Day Weather Forecast

Advertisements
Track Severe Weather on mobile